메인 페이지
METAR-TAF:

METAR-TAF

공항 :

Plainview, 텍사스, 미국

위도: 34-10-05N, 경도: 101-43-02W, 고도: 1028m

현재 날씨관측

예보는 15분 전, 19:15시(UTC)에 발표되었습니다.
북서7kt
온도 1°C
습도 75%
기압 1024 hPa
시정: 16.1km
고도 1900ft 상공 흐림

METAR: KPVW 181915Z AUTO 32007KT 10SM OVC019 01/M03 A3023 RMK AO2 T00111031

시각: 13:30 (19:30 UTC)

예보

예보는 2 시간 3분 전, 17:27시(UTC)에 발표되었습니다.
예보 대상 시간: 18일 18시부터 19일 18시까지 (UTC)
7kt
시정: 10km
고도 1500ft 상공 흐림
18일 2000시부터 (UTC)
여러 방향의 바람 5kt
시정: 10km
고도 3000ft 상공 구름 조금
고도 25000ft 상공 구름 많음
19일 0000시부터 (UTC)
서남서6kt
시정: 10km
고도 25000ft 상공 구름 보통

TAF: KPVW 181727Z 1818/1918 35007KT P6SM OVC015 FM182000 VRB05KT P6SM FEW030 BKN250 FM190000 24006KT P6SM SCT250

4,000개 이상의 공항 관측 자료 및 예보 (METAR 및 TAF 보고).

지도상에서 검색 가능한 기상관측소가 노란 점과 빨간 점으로 표시되어 있습니다.

기상관측소 명을 보려면 표시 위로 마우스를 이동하세요.

날씨 관측과 예보를 보려면 클릭하세요.

지도 변경 : 확대하려면 엑스 표시가 있는 녹색 버튼, 축소하려면 빼기 표시가 있는 녹색 버튼, 다음 페이지의 지도를 보려면 녹색 화살표를 클릭하세요.


METAR-TAF: